Time;durP1;ratioP1;P1;durP2;ratioP2;P2;SDS_P1;SDS_P2;PMS_P1;PMS_P2;Temp;Humidity;BMP_temperature;BMP_pressure;BME280_temperature;BME280_humidity;BME280_pressure;Samples;Min_cycle;Max_cycle;Signal;HPM_P1;HPM_P2
2022/05/10 00:00:26;;;;;;;;;;;;;;;20.22;48.88;101011.06;5000161;28;6788;-72
2022/05/10 00:02:55;;;;;;;;;;;;;;;20.21;49.08;101010.19;5000076;28;7316;-72
2022/05/10 00:05:32;;;;;;;;;;;;;;;20.19;48.66;101006.69;5002942;28;7257;-72
2022/05/10 00:08:00;;;;;;;;;;;;;;;20.20;48.76;101000.63;5003736;28;6820;-72
2022/05/10 00:10:26;;;;;;;;;;;;;;;20.21;48.43;100996.31;5002471;28;6800;-72
2022/05/10 00:12:52;;;;;;;;;;;;;;;20.22;48.57;100998.06;5000225;28;6780;-72
2022/05/10 00:15:18;;;;;;;;;;;;;;;20.20;48.67;100989.34;4982219;28;6804;-72
2022/05/10 00:17:45;;;;;;;;;;;;;;;20.17;48.93;100986.69;5000086;28;8022;-73
2022/05/10 00:20:18;;;;;;;;;;;;;;;20.14;48.45;100981.44;4980812;28;6979;-73
2022/05/10 00:22:44;;;;;;;;;;;;;;;20.09;48.78;100982.25;5014067;28;6823;-73
2022/05/10 00:25:14;;;;;;;;;;;;;;;20.06;49.06;100989.13;4979551;28;7884;-73
2022/05/10 00:27:40;;;;;;;;;;;;;;;20.02;48.67;100985.56;5003157;28;8066;-73
2022/05/10 00:30:08;;;;;;;;;;;;;;;19.98;48.83;100984.63;5000137;28;6788;-73
2022/05/10 00:32:38;;;;;;;;;;;;;;;19.94;48.79;100977.63;4991932;28;7896;-73
2022/05/10 00:35:18;;;;;;;;;;;;;;;19.92;48.43;100981.03;5003802;28;6807;-73
2022/05/10 00:37:47;;;;;;;;;;;;;;;19.87;48.96;100978.34;4999185;28;6811;-73
2022/05/10 00:40:19;;;;;;;;;;;;;;;19.83;48.67;100972.19;4984590;28;6820;-73
2022/05/10 00:43:25;;;;;;;;;;;;;;;19.79;49.28;100969.50;5001465;28;8111;-73
2022/05/10 00:46:04;;;;;;;;;;;;;;;19.73;49.74;100970.25;4997285;28;7883;-73
2022/05/10 00:49:09;;;;;;;;;;;;;;;19.69;49.88;100971.03;5014879;28;6815;-73
2022/05/10 00:51:46;;;;;;;;;;;;;;;19.68;50.19;100970.19;4993827;28;6986;-73
2022/05/10 00:54:39;;;;;;;;;;;;;;;19.72;50.05;100968.50;5000858;28;7035;-72
2022/05/10 00:57:37;;;;;;;;;;;;;;;19.76;49.83;100970.31;5002701;28;6828;-72
2022/05/10 01:00:08;;;;;;;;;;;;;;;19.78;49.71;100976.41;5003015;28;6824;-72
2022/05/10 01:02:46;;;;;;;;;;;;;;;19.82;49.56;100972.16;4999023;28;7296;-73
2022/05/10 01:05:32;;;;;;;;;;;;;;;19.87;49.53;100959.22;4996275;28;6827;-73
2022/05/10 01:08:16;;;;;;;;;;;;;;;19.88;49.20;100959.28;4981108;28;6808;-73
2022/05/10 01:11:18;;;;;;;;;;;;;;;19.89;49.19;100958.41;5002589;28;6880;-73
2022/05/10 01:13:43;;;;;;;;;;;;;;;19.89;49.71;100962.72;5003527;28;6891;-73
2022/05/10 01:16:22;;;;;;;;;;;;;;;19.89;49.13;100960.13;4997947;28;6955;-73
2022/05/10 01:18:50;;;;;;;;;;;;;;;19.88;49.09;100956.66;4979711;28;6808;-73
2022/05/10 01:21:59;;;;;;;;;;;;;;;19.88;48.86;100959.28;4998558;28;6808;-73
2022/05/10 01:24:31;;;;;;;;;;;;;;;19.85;48.84;100949.69;4964610;28;7199;-72
2022/05/10 01:27:26;;;;;;;;;;;;;;;19.84;49.58;100947.94;4999780;28;6815;-72
2022/05/10 01:30:20;;;;;;;;;;;;;;;19.82;48.91;100949.63;5001312;28;6998;-72
2022/05/10 01:36:29;;;;;;;;;;;;;;;19.79;49.08;100938.28;4999410;28;6820;-72
2022/05/10 01:39:06;;;;;;;;;;;;;;;19.76;48.90;100933.91;4988912;28;6816;-72
2022/05/10 01:42:02;;;;;;;;;;;;;;;19.75;48.91;100936.47;5000376;28;6876;-72
2022/05/10 01:45:04;;;;;;;;;;;;;;;19.70;48.88;100936.38;4999772;28;7382;-73
2022/05/10 01:47:39;;;;;;;;;;;;;;;19.63;49.70;100934.53;4976247;28;7270;-73
2022/05/10 01:50:38;;;;;;;;;;;;;;;19.61;49.53;100936.22;5001417;28;6958;-73
2022/05/10 01:53:17;;;;;;;;;;;;;;;19.56;49.13;100936.16;5002207;28;6914;-73
2022/05/10 01:55:54;;;;;;;;;;;;;;;19.54;49.52;100930.00;5001719;28;7964;-72
2022/05/10 01:58:35;;;;;;;;;;;;;;;19.52;49.10;100936.91;4997879;28;7728;-72
2022/05/10 02:01:27;;;;;;;;;;;;;;;19.50;49.53;100933.41;4975142;28;7334;-72
2022/05/10 02:04:11;;;;;;;;;;;;;;;19.45;48.81;100930.72;4960219;28;6991;-72
2022/05/10 02:06:57;;;;;;;;;;;;;;;19.42;49.13;100934.13;5003869;28;7205;-72
2022/05/10 02:09:35;;;;;;;;;;;;;;;19.37;49.05;100929.69;4998454;28;6896;-72
2022/05/10 02:12:31;;;;;;;;;;;;;;;19.33;50.10;100927.88;4995068;28;6820;-73
2022/05/10 02:15:20;;;;;;;;;;;;;;;19.28;49.42;100927.78;4999328;28;6811;-73
2022/05/10 02:17:58;;;;;;;;;;;;;;;19.25;49.36;100930.31;4977777;28;6836;-73
2022/05/10 02:20:41;;;;;;;;;;;;;;;19.22;49.65;100925.06;4997726;28;7006;-73
2022/05/10 02:23:27;;;;;;;;;;;;;;;19.17;49.49;100927.56;4999674;28;6884;-73
2022/05/10 02:26:04;;;;;;;;;;;;;;;19.12;50.36;100918.78;5001957;28;6815;-73
2022/05/10 02:28:47;;;;;;;;;;;;;;;19.07;50.24;100925.63;5000239;28;6808;-73
2022/05/10 02:31:24;;;;;;;;;;;;;;;19.01;49.92;100921.16;5000909;28;6990;-73
2022/05/10 02:33:51;;;;;;;;;;;;;;;18.98;50.10;100915.88;5005030;28;7403;-73
2022/05/10 02:36:18;;;;;;;;;;;;;;;18.95;50.48;100916.69;4999614;28;6799;-73
2022/05/10 02:38:45;;;;;;;;;;;;;;;18.92;50.05;100910.53;4980348;28;8001;-73
2022/05/10 02:41:21;;;;;;;;;;;;;;;18.89;50.77;100906.16;5016382;28;6788;-73
2022/05/10 02:44:01;;;;;;;;;;;;;;;18.88;50.17;100909.59;4982146;28;6904;-73
2022/05/10 02:46:28;;;;;;;;;;;;;;;18.85;50.31;100901.75;4999219;28;6812;-73
2022/05/10 02:48:54;;;;;;;;;;;;;;;18.84;50.52;100905.19;4995064;28;8132;-73
2022/05/10 02:51:20;;;;;;;;;;;;;;;18.80;50.05;100908.53;4999749;28;6808;-73
2022/05/10 02:53:47;;;;;;;;;;;;;;;18.77;50.17;100903.28;4998295;28;6792;-73
2022/05/10 02:56:18;;;;;;;;;;;;;;;18.70;50.30;100895.34;5000570;28;6892;-73
2022/05/10 02:58:47;;;;;;;;;;;;;;;18.67;50.75;100900.50;4998359;28;6824;-73
2022/05/10 03:01:57;;;;;;;;;;;;;;;18.63;50.50;100888.28;4996894;28;6799;-73
2022/05/10 03:04:23;;;;;;;;;;;;;;;18.57;50.83;100883.81;4984123;28;6824;-72
2022/05/10 03:06:50;;;;;;;;;;;;;;;18.57;50.46;100888.16;5000335;28;7722;-72
2022/05/10 03:09:16;;;;;;;;;;;;;;;18.56;50.91;100886.41;5001550;28;6986;-72
2022/05/10 03:11:42;;;;;;;;;;;;;;;18.56;51.08;100879.47;4995836;28;6871;-72
2022/05/10 03:14:09;;;;;;;;;;;;;;;18.55;50.87;100876.88;5003650;28;6791;-72
2022/05/10 03:16:36;;;;;;;;;;;;;;;18.55;50.39;100884.66;4997868;28;6796;-72
2022/05/10 03:19:04;;;;;;;;;;;;;;;18.51;50.53;100882.81;4977186;28;7115;-72
2022/05/10 03:21:29;;;;;;;;;;;;;;;18.46;50.88;100875.81;4999129;28;6819;-72
2022/05/10 03:23:55;;;;;;;;;;;;;;;18.43;50.51;100875.72;5001596;28;6804;-72
2022/05/10 03:26:26;;;;;;;;;;;;;;;18.45;51.31;100873.16;4983627;28;7158;-72
2022/05/10 03:28:52;;;;;;;;;;;;;;;18.45;50.94;100871.47;4993534;28;6796;-73
2022/05/10 03:31:23;;;;;;;;;;;;;;;18.47;50.47;100871.47;4980278;28;7196;-72
2022/05/10 03:34:53;;;;;;;;;;;;;;;18.49;50.76;100874.97;5002949;28;6807;-72
2022/05/10 03:36:35;;;;;;;;;;;;;;;18.51;50.57;100867.22;5002284;28;7047;-72
2022/05/10 03:39:02;;;;;;;;;;;;;;;18.53;50.66;100868.13;5012503;28;6803;-72
2022/05/10 03:41:27;;;;;;;;;;;;;;;18.54;50.93;100863.00;4999905;28;10022;-72
2022/05/10 03:43:53;;;;;;;;;;;;;;;18.54;50.51;100877.66;5013479;28;6799;-72
2022/05/10 03:46:19;;;;;;;;;;;;;;;18.51;50.63;100862.03;5002151;28;6783;-73
2022/05/10 03:48:44;;;;;;;;;;;;;;;18.50;50.92;100871.56;5006715;28;6975;-72
2022/05/10 03:51:10;;;;;;;;;;;;;;;18.49;50.72;100868.94;5003444;28;6823;-72
2022/05/10 03:53:36;;;;;;;;;;;;;;;18.45;51.07;100862.78;5002158;28;6804;-72
2022/05/10 03:56:02;;;;;;;;;;;;;;;18.42;50.67;100868.78;5003701;28;6918;-72
2022/05/10 03:58:28;;;;;;;;;;;;;;;18.39;50.53;100860.03;4987363;28;6784;-72
2022/05/10 04:00:53;;;;;;;;;;;;;;;18.36;51.04;100867.75;5004181;28;7299;-72
2022/05/10 04:03:19;;;;;;;;;;;;;;;18.31;50.68;100862.47;4995546;28;6832;-73
2022/05/10 04:05:45;;;;;;;;;;;;;;;18.29;51.25;100869.34;4995715;28;7821;-72
2022/05/10 04:08:11;;;;;;;;;;;;;;;18.27;51.13;100860.66;4985185;28;6847;-72
2022/05/10 04:10:36;;;;;;;;;;;;;;;18.26;51.27;100861.50;5003684;28;6795;-72
2022/05/10 04:13:02;;;;;;;;;;;;;;;18.26;51.35;100853.72;4993912;28;8288;-72
2022/05/10 04:15:28;;;;;;;;;;;;;;;18.26;51.12;100861.50;5001017;28;6949;-72
2022/05/10 04:17:54;;;;;;;;;;;;;;;18.28;51.21;100859.81;4996799;28;6853;-72
2022/05/10 04:20:20;;;;;;;;;;;;;;;18.29;51.10;100858.97;4996246;28;6831;-72
2022/05/10 04:22:45;;;;;;;;;;;;;;;18.30;51.31;100852.94;5002744;28;6803;-72
2022/05/10 04:25:12;;;;;;;;;;;;;;;18.32;51.55;100856.44;5002721;28;6784;-72
2022/05/10 04:27:38;;;;;;;;;;;;;;;18.32;51.23;100859.03;5001964;28;7375;-72
2022/05/10 04:30:05;;;;;;;;;;;;;;;18.32;51.65;100857.31;5005604;28;7228;-72
2022/05/10 04:32:31;;;;;;;;;;;;;;;18.32;51.08;100849.53;5004376;28;7562;-72
2022/05/10 04:34:57;;;;;;;;;;;;;;;18.34;51.18;100849.56;5001138;28;7001;-72
2022/05/10 04:37:22;;;;;;;;;;;;;;;18.35;51.63;100848.72;5004395;28;7004;-72
2022/05/10 04:42:32;;;;;;;;;;;;;;;18.41;51.94;100851.44;5000418;28;8205;-72
2022/05/10 04:44:59;;;;;;;;;;;;;;;18.45;51.55;100849.81;4983320;28;6820;-72
2022/05/10 04:47:26;;;;;;;;;;;;;;;18.50;51.64;100847.31;5004047;28;6800;-72
2022/05/10 04:49:51;;;;;;;;;;;;;;;18.54;51.14;100850.00;5003123;28;6796;-72
2022/05/10 04:52:17;;;;;;;;;;;;;;;18.61;51.24;100858.81;5002315;28;6803;-72
2022/05/10 04:54:43;;;;;;;;;;;;;;;18.65;51.36;100855.47;5004348;28;7772;-72
2022/05/10 04:57:08;;;;;;;;;;;;;;;18.72;51.05;100852.13;5002658;28;6898;-72
2022/05/10 04:59:34;;;;;;;;;;;;;;;18.82;51.73;100852.31;5006772;28;6787;-72
2022/05/10 05:02:00;;;;;;;;;;;;;;;18.91;51.27;100852.53;5000485;28;6815;-72
2022/05/10 05:04:25;;;;;;;;;;;;;;;18.98;50.80;100851.81;5001288;28;7703;-72
2022/05/10 05:06:52;;;;;;;;;;;;;;;19.07;51.41;100858.06;5004422;28;6780;-72
2022/05/10 05:09:18;;;;;;;;;;;;;;;19.16;50.93;100853.06;5005363;28;6804;-72
2022/05/10 05:11:44;;;;;;;;;;;;;;;19.25;50.56;100861.03;5002393;28;6854;-72
2022/05/10 05:14:10;;;;;;;;;;;;;;;19.35;50.52;100854.28;5001973;28;6816;-72
2022/05/10 05:16:37;;;;;;;;;;;;;;;19.46;50.72;100857.09;4989126;28;7702;-72
2022/05/10 05:19:02;;;;;;;;;;;;;;;19.60;50.65;100859.94;4984557;28;6966;-72
2022/05/10 05:21:28;;;;;;;;;;;;;;;19.74;50.27;100860.19;5000722;28;7106;-72
2022/05/10 05:23:54;;;;;;;;;;;;;;;19.90;50.50;100855.28;4986745;28;6887;-72
2022/05/10 05:26:22;;;;;;;;;;;;;;;20.07;50.96;100859.03;5003198;28;6803;-72
2022/05/10 05:28:48;;;;;;;;;;;;;;;20.28;50.19;100860.25;5003903;28;7309;-72
2022/05/10 05:31:15;;;;;;;;;;;;;;;20.49;50.02;100857.06;5003435;28;7187;-72
2022/05/10 05:33:41;;;;;;;;;;;;;;;20.68;49.73;100858.22;5001990;28;6974;-72
2022/05/10 05:36:07;;;;;;;;;;;;;;;20.87;49.37;100852.38;4999511;28;7065;-72
2022/05/10 05:38:32;;;;;;;;;;;;;;;21.04;48.92;100857.78;4999591;28;6951;-72
2022/05/10 05:40:58;;;;;;;;;;;;;;;21.22;48.97;100864.97;5001540;28;6941;-72
2022/05/10 05:43:24;;;;;;;;;;;;;;;21.39;48.56;100857.31;4996757;28;7084;-72
2022/05/10 05:45:52;;;;;;;;;;;;;;;21.55;48.41;100857.50;5000358;28;6795;-72
2022/05/10 05:48:18;;;;;;;;;;;;;;;21.70;48.09;100855.03;5003603;28;6804;-72
2022/05/10 05:50:44;;;;;;;;;;;;;;;21.86;47.35;100856.06;4999825;28;6796;-72
2022/05/10 05:53:10;;;;;;;;;;;;;;;21.99;46.90;100850.97;4981623;28;6860;-72
2022/05/10 05:55:36;;;;;;;;;;;;;;;22.08;46.36;100844.91;4967454;28;6950;-72
2022/05/10 05:58:03;;;;;;;;;;;;;;;22.19;46.22;100848.47;5018565;28;7141;-72
2022/05/10 06:00:29;;;;;;;;;;;;;;;22.29;45.92;100834.63;4983826;28;6800;-72
2022/05/10 06:02:55;;;;;;;;;;;;;;;22.39;45.64;100843.41;5003725;28;6796;-72
2022/05/10 06:05:24;;;;;;;;;;;;;;;22.48;45.54;100843.44;5004119;28;7085;-72
2022/05/10 06:07:50;;;;;;;;;;;;;;;22.58;45.17;100841.78;5005562;28;7180;-72
2022/05/10 06:10:16;;;;;;;;;;;;;;;22.66;45.07;100838.34;5002432;28;7211;-72
2022/05/10 06:12:42;;;;;;;;;;;;;;;22.75;44.55;100833.16;5007031;28;6796;-72
2022/05/10 06:15:14;;;;;;;;;;;;;;;22.83;44.71;100831.47;5000474;28;7704;-72
2022/05/10 06:17:43;;;;;;;;;;;;;;;22.93;44.53;100832.34;4976397;28;7456;-72
2022/05/10 06:20:11;;;;;;;;;;;;;;;23.02;44.49;100828.91;5004629;28;8726;-72
2022/05/10 06:22:37;;;;;;;;;;;;;;;23.12;44.10;100833.28;4998604;28;7220;-72
2022/05/10 06:25:05;;;;;;;;;;;;;;;23.26;44.29;100835.94;5003169;28;6957;-72
2022/05/10 06:27:30;;;;;;;;;;;;;;;23.42;44.23;100836.88;4997828;28;7027;-72
2022/05/10 06:29:56;;;;;;;;;;;;;;;23.60;43.84;100840.41;5002106;28;6894;-73
2022/05/10 06:32:26;;;;;;;;;;;;;;;23.80;42.96;100834.28;5004146;28;6960;-73
2022/05/10 06:34:52;;;;;;;;;;;;;;;24.00;42.74;100835.16;4975573;28;6974;-73
2022/05/10 06:40:14;;;;;;;;;;;;;;;24.54;42.66;100823.75;5002271;28;8686;-73
2022/05/10 06:42:41;;;;;;;;;;;;;;;24.82;42.02;100821.03;5003077;28;6816;-73
2022/05/10 06:45:10;;;;;;;;;;;;;;;25.09;41.73;100815.66;4979214;28;6816;-73
2022/05/10 06:47:42;;;;;;;;;;;;;;;25.34;40.54;100819.00;5001542;28;6792;-73
2022/05/10 06:50:12;;;;;;;;;;;;;;;25.58;40.36;100813.63;4986395;28;6900;-73
2022/05/10 06:52:43;;;;;;;;;;;;;;;25.79;40.49;100805.56;4987380;28;6812;-73
2022/05/10 06:55:10;;;;;;;;;;;;;;;25.99;40.10;100807.13;5004687;28;6899;-73
2022/05/10 06:57:36;;;;;;;;;;;;;;;26.17;39.77;100805.19;5002320;28;6867;-73
2022/05/10 07:00:05;;;;;;;;;;;;;;;26.31;39.14;100802.44;5002151;28;6888;-73
2022/05/10 07:02:31;;;;;;;;;;;;;;;26.42;39.02;100790.06;5016970;28;6824;-73
2022/05/10 07:04:57;;;;;;;;;;;;;;;26.55;38.77;100800.41;5007820;28;7357;-73
2022/05/10 07:07:23;;;;;;;;;;;;;;;26.63;38.74;100793.31;5006724;28;6847;-73
2022/05/10 07:09:49;;;;;;;;;;;;;;;26.69;38.42;100793.25;5007453;28;6791;-73
2022/05/10 07:12:14;;;;;;;;;;;;;;;26.76;38.15;100794.91;5005245;28;6800;-73
2022/05/10 07:14:40;;;;;;;;;;;;;;;26.84;38.36;100791.28;4999422;28;6808;-73
2022/05/10 07:17:06;;;;;;;;;;;;;;;26.91;38.31;100787.72;4963261;28;7150;-73
2022/05/10 07:19:31;;;;;;;;;;;;;;;26.96;38.05;100793.78;4999625;28;7218;-73
2022/05/10 07:21:57;;;;;;;;;;;;;;;27.01;38.20;100797.22;5009014;28;7147;-73
2022/05/10 07:24:23;;;;;;;;;;;;;;;27.03;38.12;100790.16;5002164;28;6799;-73
2022/05/10 07:26:48;;;;;;;;;;;;;;;27.06;37.73;100786.63;5008626;28;6780;-73
2022/05/10 07:29:16;;;;;;;;;;;;;;;27.07;37.50;100791.00;4983758;28;6922;-73
2022/05/10 07:31:42;;;;;;;;;;;;;;;27.13;38.07;100782.13;4987520;28;7042;-73
2022/05/10 07:34:09;;;;;;;;;;;;;;;27.18;37.69;100788.22;5001876;28;6811;-73
2022/05/10 07:36:35;;;;;;;;;;;;;;;27.22;37.42;100787.25;5004110;28;6800;-73
2022/05/10 07:39:10;;;;;;;;;;;;;;;27.27;37.48;100785.44;5002620;28;6807;-73
2022/05/10 07:41:38;;;;;;;;;;;;;;;27.34;36.75;100780.94;5003038;28;7070;-73
2022/05/10 07:44:05;;;;;;;;;;;;;;;27.43;36.54;100772.91;4998104;28;6819;-73
2022/05/10 07:46:31;;;;;;;;;;;;;;;27.52;35.90;100779.75;5004002;28;6946;-73
2022/05/10 07:48:57;;;;;;;;;;;;;;;27.59;35.66;100781.44;4980669;28;6815;-74
2022/05/10 07:51:23;;;;;;;;;;;;;;;27.67;35.62;100772.53;5005639;28;6874;-73
2022/05/10 07:53:49;;;;;;;;;;;;;;;27.74;35.53;100771.53;5002916;28;6815;-73
2022/05/10 07:56:15;;;;;;;;;;;;;;;27.86;35.17;100768.69;5007336;28;6811;-73
2022/05/10 07:58:41;;;;;;;;;;;;;;;27.97;34.77;100772.88;5005425;28;6816;-73
2022/05/10 08:01:07;;;;;;;;;;;;;;;28.08;34.34;100770.91;4985280;28;7854;-73
2022/05/10 08:03:34;;;;;;;;;;;;;;;28.23;34.40;100767.13;5002747;28;7177;-74
2022/05/10 08:06:00;;;;;;;;;;;;;;;28.39;34.20;100770.34;5019576;28;6999;-74
2022/05/10 08:08:29;;;;;;;;;;;;;;;28.51;33.99;100776.25;4999369;28;6803;-73
2022/05/10 08:10:57;;;;;;;;;;;;;;;28.67;34.35;100776.78;5003603;28;6823;-73
2022/05/10 08:13:25;;;;;;;;;;;;;;;28.86;34.52;100765.88;5002390;28;6994;-73
2022/05/10 08:15:53;;;;;;;;;;;;;;;29.10;34.13;100767.06;4985348;28;6820;-73
2022/05/10 08:18:20;;;;;;;;;;;;;;;29.36;33.55;100773.50;5003937;28;7062;-73
2022/05/10 08:20:48;;;;;;;;;;;;;;;29.50;33.54;100767.88;5004391;28;7410;-73
2022/05/10 08:23:23;;;;;;;;;;;;;;;29.50;32.99;100773.16;5002303;28;6832;-73
2022/05/10 08:25:55;;;;;;;;;;;;;;;29.44;32.95;100766.25;4988798;28;7102;-73
2022/05/10 08:28:22;;;;;;;;;;;;;;;29.36;32.74;100766.44;5004641;28;7339;-73
2022/05/10 08:30:49;;;;;;;;;;;;;;;29.32;32.62;100774.47;5002673;28;6899;-73
2022/05/10 08:33:24;;;;;;;;;;;;;;;29.25;32.39;100777.25;5003713;28;7306;-73
2022/05/10 08:35:53;;;;;;;;;;;;;;;29.18;33.13;100770.41;5001539;28;6812;-73
2022/05/10 08:38:19;;;;;;;;;;;;;;;29.09;32.55;100765.34;5002385;28;6796;-73
2022/05/10 08:41:17;;;;;;;;;;;;;;;29.02;32.87;100771.66;5018501;28;6796;-73
2022/05/10 08:44:08;;;;;;;;;;;;;;;28.93;32.73;100764.84;5004727;28;7066;-72
2022/05/10 08:46:42;;;;;;;;;;;;;;;28.84;32.34;100768.53;5006510;28;7350;-72
2022/05/10 08:49:34;;;;;;;;;;;;;;;28.79;32.14;100768.59;5004940;28;6808;-72
2022/05/10 08:52:02;;;;;;;;;;;;;;;28.78;32.61;100761.59;5003284;28;6824;-72
2022/05/10 08:54:30;;;;;;;;;;;;;;;28.83;32.38;100761.53;5003793;28;6974;-72
2022/05/10 08:57:37;;;;;;;;;;;;;;;28.86;32.59;100758.81;4977077;28;6960;-72
2022/05/10 09:00:29;;;;;;;;;;;;;;;28.93;32.87;100762.19;5003718;28;7456;-72
2022/05/10 09:02:59;;;;;;;;;;;;;;;29.00;32.38;100768.19;5005641;28;6823;-72
2022/05/10 09:05:42;;;;;;;;;;;;;;;29.07;32.50;100752.19;5002463;28;6815;-73
2022/05/10 09:08:46;;;;;;;;;;;;;;;29.18;32.86;100749.28;5003319;28;6812;-73
2022/05/10 09:11:15;;;;;;;;;;;;;;;29.34;32.70;100752.41;5004610;28;7031;-73
2022/05/10 09:13:42;;;;;;;;;;;;;;;29.57;32.49;100744.84;5003211;28;6808;-73
2022/05/10 09:16:14;;;;;;;;;;;;;;;29.77;31.87;100741.66;5002458;28;6812;-73
2022/05/10 09:18:50;;;;;;;;;;;;;;;29.98;32.09;100729.66;5003386;28;6899;-73
2022/05/10 09:21:39;;;;;;;;;;;;;;;30.11;31.78;100731.97;5002067;28;7999;-74
2022/05/10 09:24:32;;;;;;;;;;;;;;;30.32;31.47;100730.47;5002285;28;7021;-73
2022/05/10 09:27:06;;;;;;;;;;;;;;;30.53;30.25;100728.97;5002938;28;7155;-74
2022/05/10 09:29:39;;;;;;;;;;;;;;;30.71;30.05;100721.41;4982009;28;6812;-74
2022/05/10 09:35:27;;;;;;;;;;;;;;;31.00;30.04;100711.66;4999547;28;7006;-73
2022/05/10 09:38:19;;;;;;;;;;;;;;;31.20;30.14;100718.09;4991776;28;6819;-73
2022/05/10 09:40:48;;;;;;;;;;;;;;;31.34;29.43;100713.22;5001790;28;6811;-73
2022/05/10 09:43:32;;;;;;;;;;;;;;;31.41;28.83;100712.09;4988385;28;7259;-73
2022/05/10 09:46:18;;;;;;;;;;;;;;;31.39;29.06;100718.34;5004036;28;7229;-74
2022/05/10 09:48:47;;;;;;;;;;;;;;;31.36;28.82;100711.38;5006253;28;6811;-74
2022/05/10 09:51:31;;;;;;;;;;;;;;;31.32;28.35;100712.41;5001698;28;6883;-73
2022/05/10 09:53:57;;;;;;;;;;;;;;;31.28;28.98;100706.34;5004278;28;6796;-73
2022/05/10 09:56:22;;;;;;;;;;;;;;;31.26;28.73;100707.31;5005944;28;6796;-74
2022/05/10 09:59:12;;;;;;;;;;;;;;;31.19;28.12;100706.63;5001058;28;6867;-73
2022/05/10 10:01:49;;;;;;;;;;;;;;;31.09;28.53;100703.41;4997233;28;6816;-74
2022/05/10 10:04:34;;;;;;;;;;;;;;;30.98;29.00;100700.25;4987250;28;6965;-74
2022/05/10 10:07:20;;;;;;;;;;;;;;;30.90;28.85;100696.13;5018598;28;6820;-74
2022/05/10 10:10:15;;;;;;;;;;;;;;;30.87;28.38;100698.00;4993314;28;7160;-74
2022/05/10 10:12:46;;;;;;;;;;;;;;;30.81;28.93;100700.81;5002135;28;6799;-74
2022/05/10 10:15:28;;;;;;;;;;;;;;;30.75;28.20;100705.38;4980940;28;7335;-73
2022/05/10 10:18:03;;;;;;;;;;;;;;;30.65;28.91;100706.59;5000893;28;7023;-73
2022/05/10 10:20:48;;;;;;;;;;;;;;;30.50;28.46;100705.25;5000872;28;6800;-73
2022/05/10 10:23:41;;;;;;;;;;;;;;;30.37;28.20;100703.91;5000112;28;6812;-73
2022/05/10 10:26:48;;;;;;;;;;;;;;;30.54;28.94;100701.63;5002493;28;6800;-73
2022/05/10 10:29:42;;;;;;;;;;;;;;;31.11;28.53;100683.09;5002918;28;6965;-73
2022/05/10 10:32:24;;;;;;;;;;;;;;;31.54;27.74;100677.22;4979375;28;6975;-73
2022/05/10 10:35:07;;;;;;;;;;;;;;;31.96;28.00;100686.34;4985764;28;6811;-73
2022/05/10 10:37:45;;;;;;;;;;;;;;;32.50;27.56;100681.66;4988827;28;6993;-73
2022/05/10 10:40:30;;;;;;;;;;;;;;;33.16;27.23;100681.69;5006404;28;6900;-73
2022/05/10 10:43:17;;;;;;;;;;;;;;;33.63;26.85;100673.47;5005012;28;6808;-73
2022/05/10 10:45:52;;;;;;;;;;;;;;;33.77;26.50;100667.53;5004968;28;6812;-73
2022/05/10 10:49:04;;;;;;;;;;;;;;;33.79;26.21;100663.00;5008543;28;7231;-73
2022/05/10 10:51:33;;;;;;;;;;;;;;;33.86;26.24;100663.59;5000900;28;6815;-73
2022/05/10 10:54:01;;;;;;;;;;;;;;;33.89;25.74;100663.44;5003155;28;6908;-73
2022/05/10 10:56:58;;;;;;;;;;;;;;;34.02;25.69;100655.78;4977422;28;6795;-73
2022/05/10 10:59:42;;;;;;;;;;;;;;;34.29;25.35;100665.22;5006569;28;7697;-73
2022/05/10 11:02:17;;;;;;;;;;;;;;;34.53;25.11;100659.66;5006225;28;6823;-73
2022/05/10 11:05:17;;;;;;;;;;;;;;;34.93;25.62;100654.16;5008839;28;6812;-71
2022/05/10 11:08:29;;;;;;;;;;;;;;;35.39;24.44;100642.94;5005726;28;6884;-71
2022/05/10 11:11:14;;;;;;;;;;;;;;;35.58;24.64;100640.19;5004546;28;6896;-71
2022/05/10 11:13:45;;;;;;;;;;;;;;;35.64;23.88;100645.19;5007302;28;6816;-72
2022/05/10 11:16:48;;;;;;;;;;;;;;;35.49;24.05;100640.63;5002820;28;6824;-72
2022/05/10 11:20:11;;;;;;;;;;;;;;;35.24;24.30;100640.13;5007893;28;6836;-72
2022/05/10 11:23:00;;;;;;;;;;;;;;;35.05;23.99;100648.25;5007253;28;6835;-72
2022/05/10 11:25:49;;;;;;;;;;;;;;;35.00;24.54;100629.81;4982434;28;7452;-72
2022/05/10 11:28:43;;;;;;;;;;;;;;;35.13;24.64;100627.41;5006756;28;6944;-72
2022/05/10 11:31:35;;;;;;;;;;;;;;;35.27;23.96;100637.34;5016884;28;6831;-72
2022/05/10 11:34:49;;;;;;;;;;;;;;;35.42;23.78;100635.66;5019646;28;6951;-72
2022/05/10 11:37:34;;;;;;;;;;;;;;;35.25;23.40;100628.56;4993957;28;6828;-72
2022/05/10 11:40:32;;;;;;;;;;;;;;;34.67;23.80;100633.25;5003274;28;6800;-72
2022/05/10 11:43:25;;;;;;;;;;;;;;;34.13;24.37;100631.38;5005980;28;6800;-72
2022/05/10 11:46:40;;;;;;;;;;;;;;;34.47;24.40;100624.41;5008765;28;7246;-72
2022/05/10 11:49:22;;;;;;;;;;;;;;;34.96;23.76;100622.06;5004657;28;7154;-72
2022/05/10 11:52:38;;;;;;;;;;;;;;;35.04;24.00;100615.41;4974281;28;6939;-72
2022/05/10 11:55:36;;;;;;;;;;;;;;;34.84;23.74;100607.56;5002071;28;7982;-72
2022/05/10 11:58:08;;;;;;;;;;;;;;;34.70;23.54;100608.25;5002196;28;6990;-72
2022/05/10 12:00:33;;;;;;;;;;;;;;;34.60;23.92;100615.88;4984224;28;7286;-72
2022/05/10 12:03:38;;;;;;;;;;;;;;;34.55;23.95;100608.09;5018579;28;6788;-72
2022/05/10 12:06:22;;;;;;;;;;;;;;;34.59;24.23;100606.16;5000162;28;7182;-72
2022/05/10 12:08:49;;;;;;;;;;;;;;;34.66;23.54;100604.88;5006773;28;7021;-72
2022/05/10 12:11:27;;;;;;;;;;;;;;;34.52;23.81;100597.56;4986995;28;6800;-72
2022/05/10 12:22:19;;;;;;;;;;;;;;;33.69;23.88;100583.78;5003282;28;6907;-72
2022/05/10 12:24:47;;;;;;;;;;;;;;;33.32;23.90;100583.66;4999178;28;6803;-72
2022/05/10 12:27:12;;;;;;;;;;;;;;;32.94;24.26;100595.88;4980954;28;6894;-72
2022/05/10 12:29:38;;;;;;;;;;;;;;;32.79;24.61;100591.22;5001650;28;6875;-72
2022/05/10 12:32:11;;;;;;;;;;;;;;;33.22;25.07;100569.91;5001512;28;6803;-72
2022/05/10 12:34:54;;;;;;;;;;;;;;;33.99;24.57;100568.19;5003788;28;6824;-72
2022/05/10 12:37:22;;;;;;;;;;;;;;;34.74;23.89;100570.78;4996504;28;7976;-72
2022/05/10 12:40:01;;;;;;;;;;;;;;;35.55;23.38;100566.63;4994970;28;6815;-72
2022/05/10 12:43:14;;;;;;;;;;;;;;;36.36;23.00;100559.44;5004515;28;6815;-72
2022/05/10 12:46:06;;;;;;;;;;;;;;;36.77;22.15;100549.09;5002259;28;6903;-72
2022/05/10 12:49:20;;;;;;;;;;;;;;;36.66;21.99;100552.44;5001740;28;7479;-71
2022/05/10 12:52:12;;;;;;;;;;;;;;;36.18;21.72;100552.53;5004617;28;7201;-71
2022/05/10 12:54:43;;;;;;;;;;;;;;;35.64;22.23;100551.91;5002451;28;6819;-71
2022/05/10 12:57:24;;;;;;;;;;;;;;;35.25;21.97;100542.47;4999879;28;6808;-72
2022/05/10 13:00:12;;;;;;;;;;;;;;;35.01;22.61;100549.00;5002401;28;7058;-72
2022/05/10 13:02:50;;;;;;;;;;;;;;;34.93;22.61;100551.19;5001691;28;6812;-72
2022/05/10 13:05:28;;;;;;;;;;;;;;;34.98;22.71;100546.50;5000119;28;8367;-72
2022/05/10 13:08:18;;;;;;;;;;;;;;;35.38;22.08;100543.50;5000678;28;7047;-72
2022/05/10 13:10:43;;;;;;;;;;;;;;;35.61;21.60;100528.13;5001124;28;11339;-72
2022/05/10 13:13:19;;;;;;;;;;;;;;;35.65;22.14;100524.31;4982416;28;6780;-72
2022/05/10 13:15:48;;;;;;;;;;;;;;;35.56;21.46;100527.50;4980231;28;7087;-72
2022/05/10 13:18:21;;;;;;;;;;;;;;;35.35;21.33;100532.16;5001821;28;7014;-72
2022/05/10 13:20:53;;;;;;;;;;;;;;;35.04;21.95;100516.91;4999330;28;6879;-72
2022/05/10 13:23:25;;;;;;;;;;;;;;;34.72;21.83;100519.44;4996391;28;6831;-72
2022/05/10 13:25:51;;;;;;;;;;;;;;;34.43;22.06;100515.56;4984274;28;6831;-72
2022/05/10 13:28:24;;;;;;;;;;;;;;;34.19;22.39;100522.06;4996136;28;6807;-72
2022/05/10 13:30:59;;;;;;;;;;;;;;;33.90;22.73;100516.34;4992573;28;6823;-72
2022/05/10 13:33:35;;;;;;;;;;;;;;;33.63;22.80;100514.06;4998762;28;6804;-72
2022/05/10 13:36:09;;;;;;;;;;;;;;;33.34;23.05;100516.25;4981593;28;6827;-72
2022/05/10 13:38:51;;;;;;;;;;;;;;;33.15;23.40;100513.56;4976120;28;6977;-72
2022/05/10 13:41:37;;;;;;;;;;;;;;;33.02;23.64;100523.88;4999449;28;6820;-72
2022/05/10 13:44:21;;;;;;;;;;;;;;;32.90;23.65;100512.00;5000192;28;6891;-71
2022/05/10 13:47:03;;;;;;;;;;;;;;;32.74;23.79;100502.97;5016234;28;7046;-71
2022/05/10 13:49:39;;;;;;;;;;;;;;;32.59;23.98;100491.25;5002143;28;6816;-71